Huntsville, Ohio
Current Conditions -  °F | °C
As of 3:10 PM on Monday 24 Nov 2014 (Local Time) from KEDJ Reporting Station
Overcast Overcast  
Wind Chill: 29°   Ceiling: 1900
Heat Index: 39°   Visibility: 10mi
Dew Point: 34°   Wind: 21mph
Humidity: 81%   Direction: 230°SW
Pressure: 29.59"   Gusts: 31mph
Location:  40.44°N, 83.8°W
Report Text: KEDJ 242010Z AUTO 23018G27KT 10SM OVC019 04/01 A2959 RMK AO1
Loading
Personal Weather Stations






























Interactive Weather Map New forecast layout! Learn more

10-Day Weather Forecast

Advertisements
Track Severe Weather on mobile